Time;durP1;ratioP1;P1;durP2;ratioP2;P2;SDS_P1;SDS_P2;PMS_P1;PMS_P2;Temp;Humidity;BMP_temperature;BMP_pressure;BME280_temperature;BME280_humidity;BME280_pressure;Samples;Min_cycle;Max_cycle;Signal;HPM_P1;HPM_P2
2021/05/13 00:01:49;;;;;;;8.30;4.33;;;;;;;16.90;50.49;101144.89;1768944;79;21061;-49
2021/05/13 00:04:15;;;;;;;7.25;4.62;;;;;;;16.89;50.41;101146.28;1727279;82;21044;-48
2021/05/13 00:06:43;;;;;;;5.87;4.45;;;;;;;16.89;50.15;101137.08;1763394;78;21162;-49
2021/05/13 00:09:10;;;;;;;5.28;3.98;;;;;;;16.87;49.78;101129.72;1774860;79;21041;-49
2021/05/13 00:11:38;;;;;;;5.15;4.65;;;;;;;16.85;49.65;101122.36;1780293;79;21152;-49
2021/05/13 00:14:07;;;;;;;8.05;4.75;;;;;;;16.82;49.69;101119.39;1766737;79;21032;-49
2021/05/13 00:16:35;;;;;;;8.65;5.53;;;;;;;16.80;49.93;101115.11;1768882;80;21075;-48
2021/05/13 00:19:09;;;;;;;8.83;6.47;;;;;;;16.75;50.16;101112.70;1768920;80;21065;-49
2021/05/13 00:21:38;;;;;;;8.10;6.62;;;;;;;16.73;50.36;101116.30;1694040;83;21047;-49
2021/05/13 00:24:07;;;;;;;6.67;5.30;;;;;;;16.69;50.60;101121.28;1699707;83;21477;-49
2021/05/13 00:29:08;;;;;;;4.20;3.80;;;;;;;16.66;50.19;101110.44;1690695;83;21052;-49
2021/05/13 00:31:35;;;;;;;5.42;4.92;;;;;;;16.68;50.13;101106.42;1699131;83;21092;-49
2021/05/13 00:34:03;;;;;;;4.97;3.98;;;;;;;16.65;50.27;101102.63;1700602;83;21596;-49
2021/05/13 00:36:36;;;;;;;4.95;3.45;;;;;;;16.63;50.45;101107.09;1696073;83;21122;-48
2021/05/13 00:39:05;;;;;;;4.75;3.92;;;;;;;16.63;50.69;101104.46;1703045;83;21112;-48
2021/05/13 00:41:33;;;;;;;6.92;5.30;;;;;;;16.64;51.01;101108.33;1706235;83;21040;-48
2021/05/13 00:44:00;;;;;;;5.55;4.08;;;;;;;16.66;51.23;101112.20;1700110;83;21566;-49
2021/05/13 00:46:30;;;;;;;5.62;4.00;;;;;;;16.67;51.34;101110.81;1697466;83;21116;-50
2021/05/13 00:51:28;;;;;;;4.10;3.70;;;;;;;16.72;51.32;101103.61;1653187;86;21644;-49
2021/05/13 00:53:55;;;;;;;3.65;3.25;;;;;;;16.73;51.40;101112.36;1633725;87;21088;-49
2021/05/13 00:56:23;;;;;;;5.30;3.67;;;;;;;16.73;51.40;101118.92;1634010;87;21066;-49
2021/05/13 00:58:52;;;;;;;6.87;3.55;;;;;;;16.73;51.47;101111.87;1640224;86;21123;-48
2021/05/13 01:01:21;;;;;;;3.83;3.42;;;;;;;16.74;51.47;101108.34;1693677;84;21035;-49
2021/05/13 01:03:47;;;;;;;4.87;3.70;;;;;;;16.73;51.30;101100.53;1696214;84;21566;-49
2021/05/13 01:06:14;;;;;;;3.98;3.45;;;;;;;16.72;51.00;101104.06;1691098;84;21114;-49
2021/05/13 01:08:43;;;;;;;7.00;3.95;;;;;;;16.73;50.79;101104.47;1688149;84;21087;-50
2021/05/13 01:11:13;;;;;;;5.45;4.00;;;;;;;16.72;50.66;101093.10;1683692;84;21785;-48
2021/05/13 01:14:03;;;;;;;4.85;3.80;;;;;;;16.69;50.86;101088.44;1686959;84;21606;-48
2021/05/13 01:16:45;;;;;;;4.85;4.35;;;;;;;16.65;51.00;101095.58;1682845;84;21619;-49
2021/05/13 01:19:06;;;;;;;7.87;4.55;;;;;;;16.59;51.32;101095.00;1681421;84;21563;-49
2021/05/13 01:21:38;;;;;;;5.42;4.55;;;;;;;16.58;51.64;101098.08;1687629;84;21288;-49
2021/05/13 01:24:07;;;;;;;4.90;3.92;;;;;;;16.58;51.72;101094.13;1682667;84;21040;-49
2021/05/13 01:26:34;;;;;;;4.85;4.35;;;;;;;16.60;51.95;101099.31;1686581;84;21064;-49
2021/05/13 01:29:01;;;;;;;7.08;4.60;;;;;;;16.62;52.12;101102.73;1684369;84;21048;-48
2021/05/13 01:31:28;;;;;;;5.90;4.00;;;;;;;16.62;52.06;101100.97;1689761;84;21044;-49
2021/05/13 01:33:54;;;;;;;7.53;4.33;;;;;;;16.64;51.87;101104.39;1689359;84;21610;-48
2021/05/13 01:36:22;;;;;;;4.78;4.12;;;;;;;16.64;51.81;101098.27;1686984;84;21575;-48
2021/05/13 01:38:49;;;;;;;5.50;4.05;;;;;;;16.66;51.75;101100.38;1687570;84;21112;-48
2021/05/13 01:41:15;;;;;;;5.22;4.12;;;;;;;16.67;52.01;101106.05;1695182;84;21655;-49
2021/05/13 01:43:42;;;;;;;6.55;4.87;;;;;;;16.67;52.19;101103.41;1687077;84;21080;-49
2021/05/13 01:46:10;;;;;;;5.20;4.40;;;;;;;16.68;52.28;101095.46;1686010;84;21683;-49
2021/05/13 01:48:37;;;;;;;6.47;4.85;;;;;;;16.69;52.36;101101.58;1739559;79;21047;-49
2021/05/13 01:51:04;;;;;;;4.92;3.87;;;;;;;16.66;52.49;101101.69;1780092;79;22216;-48
2021/05/13 01:53:31;;;;;;;5.40;4.40;;;;;;;16.65;52.66;101100.00;1764483;78;21644;-49
2021/05/13 01:55:58;;;;;;;5.92;4.42;;;;;;;16.63;52.94;101097.41;1779235;79;21056;-49
2021/05/13 01:58:24;;;;;;;5.85;4.22;;;;;;;16.63;53.21;101097.89;1773925;80;21084;-49
2021/05/13 02:00:51;;;;;;;6.25;4.45;;;;;;;16.63;53.43;101101.83;1736387;82;21131;-49
2021/05/13 02:03:19;;;;;;;5.62;5.03;;;;;;;16.64;53.52;101099.59;1724850;82;21107;-49
2021/05/13 02:05:45;;;;;;;6.55;5.05;;;;;;;16.67;53.49;101102.10;1721251;81;21060;-49
2021/05/13 02:08:12;;;;;;;7.70;5.20;;;;;;;16.68;53.52;101097.23;1733959;81;21136;-49
2021/05/13 02:10:40;;;;;;;5.42;4.92;;;;;;;16.67;53.64;101095.53;1739826;81;21107;-49
2021/05/13 02:13:08;;;;;;;6.05;5.00;;;;;;;16.65;53.81;101098.69;1705578;82;21547;-49
2021/05/13 02:15:36;;;;;;;9.45;5.37;;;;;;;16.64;54.14;101095.64;1771118;79;21075;-48
2021/05/13 02:18:05;;;;;;;6.78;6.08;;;;;;;16.63;54.44;101103.15;1774026;79;21714;-49
2021/05/13 02:20:32;;;;;;;7.60;5.87;;;;;;;16.63;54.71;101100.52;1777329;79;21072;-49
2021/05/13 02:22:59;;;;;;;12.33;5.95;;;;;;;16.66;54.87;101106.50;1762318;79;21124;-49
2021/05/13 02:25:29;;;;;;;7.37;5.97;;;;;;;16.69;55.04;101106.34;1788555;79;21033;-49
2021/05/13 02:27:55;;;;;;;13.75;6.05;;;;;;;16.71;55.11;101103.69;1781372;79;21020;-49
2021/05/13 02:30:22;;;;;;;8.20;5.97;;;;;;;16.72;55.21;101101.44;1771938;79;21048;-49
2021/05/13 02:32:49;;;;;;;6.83;6.12;;;;;;;16.72;55.30;101109.31;1766686;80;21138;-49
2021/05/13 02:35:17;;;;;;;8.60;5.85;;;;;;;16.71;55.47;101110.25;1775575;79;21610;-49
2021/05/13 02:37:44;;;;;;;8.33;6.28;;;;;;;16.72;55.67;101111.95;1767804;79;21109;-49
2021/05/13 02:40:12;;;;;;;8.25;5.72;;;;;;;16.72;55.68;101105.38;1769823;79;21156;-49
2021/05/13 02:42:39;;;;;;;8.58;7.33;;;;;;;16.73;55.67;101111.05;1720478;81;21593;-49
2021/05/13 02:45:09;;;;;;;7.08;6.35;;;;;;;16.76;55.56;101110.91;1777506;79;21091;-49
2021/05/13 02:47:36;;;;;;;7.20;6.15;;;;;;;16.78;55.38;101109.06;1771338;79;21029;-49
2021/05/13 02:50:08;;;;;;;11.15;6.67;;;;;;;16.81;55.40;101108.95;1779027;79;21053;-49
2021/05/13 02:52:35;;;;;;;8.98;6.70;;;;;;;16.82;55.33;101106.70;1782910;79;21021;-49
2021/05/13 02:55:05;;;;;;;8.18;6.40;;;;;;;16.80;55.38;101104.59;1768193;79;21023;-49
2021/05/13 02:57:33;;;;;;;8.70;6.67;;;;;;;16.80;55.38;101103.28;1763402;79;21600;-49
2021/05/13 03:00:15;;;;;;;12.47;6.87;;;;;;;16.80;55.49;101099.34;1763757;80;21021;-49
2021/05/13 03:02:29;;;;;;;10.53;7.05;;;;;;;16.80;55.54;101098.89;1769958;79;21110;-48
2021/05/13 03:04:56;;;;;;;8.55;7.10;;;;;;;16.82;55.63;101097.50;1780355;80;21076;-49
2021/05/13 03:07:23;;;;;;;9.55;6.95;;;;;;;16.82;55.71;101100.99;1725994;80;21139;-49
2021/05/13 03:09:57;;;;;;;7.33;6.53;;;;;;;16.83;55.87;101100.09;1714593;82;21028;-48
2021/05/13 03:12:20;;;;;;;7.58;5.97;;;;;;;16.84;56.01;101095.66;1698914;83;21016;-49
2021/05/13 03:14:46;;;;;;;8.00;6.05;;;;;;;16.86;56.20;101098.63;1769891;79;21044;-49
2021/05/13 03:17:13;;;;;;;9.33;6.40;;;;;;;16.89;56.48;101100.28;1763613;79;21536;-49
2021/05/13 03:19:44;;;;;;;6.00;4.58;;;;;;;16.98;56.63;101095.97;1776312;79;21095;-49
2021/05/13 03:22:12;;;;;;;7.50;4.70;;;;;;;17.09;56.25;101097.20;1763567;80;21037;-49
2021/05/13 03:24:45;;;;;;;3.98;3.22;;;;;;;17.22;55.67;101093.59;1767643;79;21067;-49
2021/05/13 03:29:40;;;;;;;3.30;3.00;;;;;;;17.57;54.84;101094.69;1696357;83;21670;-49
2021/05/13 03:32:07;;;;;;;3.33;3.02;;;;;;;17.78;54.32;101084.02;1698756;83;21081;-49
2021/05/13 03:34:34;;;;;;;3.08;2.83;;;;;;;18.06;53.91;101086.23;1675091;84;21101;-49
2021/05/13 03:37:00;;;;;;;6.05;2.95;;;;;;;18.45;53.08;101072.95;1698543;83;21092;-49
2021/05/13 03:39:27;;;;;;;4.17;3.00;;;;;;;18.94;51.88;101075.33;1713397;83;21083;-49
2021/05/13 03:41:56;;;;;;;4.25;2.60;;;;;;;19.40;50.72;101068.92;1721081;81;21606;-49
2021/05/13 03:44:23;;;;;;;3.20;2.80;;;;;;;19.79;49.71;101063.73;1701158;83;21060;-49
2021/05/13 03:46:49;;;;;;;3.77;3.08;;;;;;;20.11;49.07;101060.19;1687996;84;21072;-49
2021/05/13 03:49:16;;;;;;;3.45;3.02;;;;;;;20.37;48.32;101062.69;1705357;82;21083;-48
2021/05/13 03:51:43;;;;;;;4.15;3.50;;;;;;;20.55;47.46;101058.52;1708527;83;21104;-49
2021/05/13 03:54:10;;;;;;;4.15;3.35;;;;;;;20.64;47.11;101063.28;1691449;83;21647;-48
2021/05/13 03:56:36;;;;;;;3.33;2.75;;;;;;;20.60;46.76;101064.87;1698786;83;21089;-49
2021/05/13 03:59:12;;;;;;;3.05;2.85;;;;;;;20.45;46.77;101075.86;1716844;82;21576;-48
2021/05/13 04:04:13;;;;;;;3.27;2.87;;;;;;;20.04;47.27;101066.73;1718495;82;21087;-49
2021/05/13 04:06:40;;;;;;;3.90;3.50;;;;;;;19.81;47.60;101069.79;1721674;83;21103;-49
2021/05/13 04:09:09;;;;;;;4.00;3.02;;;;;;;19.60;48.20;101070.48;1721942;82;21734;-49
2021/05/13 04:11:39;;;;;;;5.78;3.22;;;;;;;19.41;48.83;101079.85;1698199;83;21073;-49
2021/05/13 04:14:06;;;;;;;5.20;3.20;;;;;;;19.26;49.33;101074.51;1648109;86;21053;-50
2021/05/13 04:16:36;;;;;;;4.05;2.90;;;;;;;19.17;49.71;101073.20;1654287;86;21774;-49
2021/05/13 04:19:03;;;;;;;4.28;3.37;;;;;;;19.10;50.23;101069.16;1654931;86;21111;-49
2021/05/13 04:21:30;;;;;;;3.87;3.15;;;;;;;19.09;50.31;101070.11;1654246;86;21092;-49
2021/05/13 04:23:57;;;;;;;3.45;3.15;;;;;;;19.11;50.34;101072.20;1648643;86;21111;-49
2021/05/13 04:26:24;;;;;;;4.12;3.25;;;;;;;19.14;50.53;101077.33;1667583;83;21080;-49
2021/05/13 04:28:50;;;;;;;3.58;2.70;;;;;;;19.18;50.49;101077.55;1698681;82;21563;-49
2021/05/13 04:31:17;;;;;;;5.00;3.90;;;;;;;19.21;50.36;101076.06;1700168;83;21095;-49
2021/05/13 04:33:44;;;;;;;3.95;2.70;;;;;;;19.22;50.37;101076.47;1681925;83;21617;-49
2021/05/13 04:36:10;;;;;;;3.60;3.08;;;;;;;19.25;50.30;101078.06;1696231;83;21063;-50
2021/05/13 04:38:37;;;;;;;5.37;2.90;;;;;;;19.25;50.41;101078.92;1698916;83;21030;-50
2021/05/13 04:41:04;;;;;;;5.80;3.37;;;;;;;19.28;50.18;101075.28;1704092;83;21056;-50
2021/05/13 04:43:37;;;;;;;9.05;3.47;;;;;;;19.29;50.08;101075.19;1688744;83;21106;-49
2021/05/13 04:46:05;;;;;;;4.35;3.50;;;;;;;19.30;50.23;101078.23;1695122;83;21039;-49
2021/05/13 04:51:22;;;;;;;4.40;3.30;;;;;;;19.32;50.51;101069.77;1705481;83;21055;-49
2021/05/13 04:53:49;;;;;;;6.10;2.98;;;;;;;19.32;50.80;101072.41;1699875;83;21022;-49
2021/05/13 04:56:16;;;;;;;3.22;2.92;;;;;;;19.36;51.05;101066.52;1697968;83;21124;-49
2021/05/13 04:58:43;;;;;;;4.05;3.30;;;;;;;19.41;51.04;101070.61;1696835;83;21033;-49
2021/05/13 05:01:10;;;;;;;2.92;2.60;;;;;;;19.49;51.20;101066.27;1716455;83;21561;-49
2021/05/13 05:03:37;;;;;;;6.40;2.60;;;;;;;19.56;51.07;101061.52;1696440;83;21179;-49
2021/05/13 05:06:05;;;;;;;3.15;2.60;;;;;;;19.60;50.81;101057.78;1687336;83;21064;-49
2021/05/13 05:08:32;;;;;;;6.10;3.58;;;;;;;19.61;50.61;101062.11;1691406;83;21591;-49
2021/05/13 05:10:59;;;;;;;6.58;3.30;;;;;;;19.61;50.74;101062.11;1743258;80;21024;-49
2021/05/13 05:13:25;;;;;;;5.53;2.52;;;;;;;19.60;50.81;101064.37;1716537;81;21575;-50
2021/05/13 05:15:53;;;;;;;2.35;2.15;;;;;;;19.60;51.09;101055.97;1786267;79;21063;-49
2021/05/13 05:18:21;;;;;;;4.30;3.17;;;;;;;19.62;51.02;101058.55;1780940;79;21071;-49
2021/05/13 05:20:52;;;;;;;3.70;3.30;;;;;;;19.65;50.86;101071.56;1772990;79;21063;-49
2021/05/13 05:23:19;;;;;;;11.57;7.08;;;;;;;19.68;50.82;101057.72;1765797;80;21021;-49
2021/05/13 05:25:46;;;;;;;6.58;3.42;;;;;;;19.73;50.61;101065.40;1779852;79;21056;-49
2021/05/13 05:28:13;;;;;;;4.15;2.75;;;;;;;19.85;50.69;101068.69;1771167;79;21115;-49
2021/05/13 05:30:41;;;;;;;3.70;2.83;;;;;;;20.04;50.23;101069.38;1776720;80;21065;-49
2021/05/13 05:33:09;;;;;;;3.05;2.85;;;;;;;20.27;49.52;101068.98;1718709;82;21070;-49
2021/05/13 05:35:37;;;;;;;4.12;2.80;;;;;;;20.47;48.74;101079.73;1705900;82;21620;-48
2021/05/13 05:38:05;;;;;;;9.83;5.53;;;;;;;20.68;47.75;101082.00;1765519;80;21111;-49
2021/05/13 05:40:32;;;;;;;6.55;4.20;;;;;;;20.83;47.22;101087.72;1788312;79;21076;-49
2021/05/13 05:42:59;;;;;;;3.83;3.52;;;;;;;20.90;46.88;101091.69;1763865;80;21071;-49
2021/05/13 05:45:25;;;;;;;4.15;3.17;;;;;;;20.93;46.24;101092.84;1781525;79;22183;-49
2021/05/13 05:50:23;;;;;;;4.72;2.60;;;;;;;20.89;46.40;101087.83;1720952;81;21016;-50
2021/05/13 05:52:50;;;;;;;2.98;2.58;;;;;;;20.82;46.07;101088.65;1683661;83;21610;-49
2021/05/13 05:55:18;;;;;;;3.83;2.72;;;;;;;20.76;45.94;101090.33;1716949;83;21079;-50
2021/05/13 05:57:44;;;;;;;3.85;3.05;;;;;;;20.72;46.22;101100.71;1702686;82;21107;-49
2021/05/13 06:00:13;;;;;;;3.58;2.45;;;;;;;20.69;46.41;101099.55;1685805;84;21115;-48
2021/05/13 06:02:40;;;;;;;4.17;3.12;;;;;;;20.61;46.08;101104.43;1678640;85;21143;-50
2021/05/13 06:05:10;;;;;;;3.00;2.70;;;;;;;20.53;46.28;101110.63;1666761;83;21803;-49
2021/05/13 06:07:37;;;;;;;4.15;2.70;;;;;;;20.47;46.32;101109.66;1678308;83;21112;-48
2021/05/13 06:10:07;;;;;;;2.60;2.40;;;;;;;20.44;45.96;101110.31;1653544;84;21166;-49
2021/05/13 06:12:35;;;;;;;2.95;2.58;;;;;;;20.43;45.85;101109.45;1696795;83;21040;-49
2021/05/13 06:15:05;;;;;;;2.60;2.20;;;;;;;20.45;46.08;101112.86;1681252;84;21074;-49
2021/05/13 06:17:32;;;;;;;2.60;2.40;;;;;;;20.44;46.08;101108.53;1684573;83;21115;-49
2021/05/13 06:20:01;;;;;;;2.45;2.10;;;;;;;20.41;45.63;101110.47;1670090;83;21076;-49
2021/05/13 06:22:31;;;;;;;2.35;2.15;;;;;;;20.34;45.33;101112.61;1681528;83;21092;-49
2021/05/13 06:24:58;;;;;;;3.83;2.58;;;;;;;20.24;45.40;101120.67;1682727;82;21633;-49
2021/05/13 06:27:25;;;;;;;3.25;2.27;;;;;;;20.18;45.83;101124.94;1678691;84;21028;-50
2021/05/13 06:29:52;;;;;;;7.87;2.62;;;;;;;20.10;46.01;101120.55;1671925;84;21052;-49
2021/05/13 06:32:18;;;;;;;2.35;2.10;;;;;;;20.02;46.55;101117.48;1688268;83;21104;-49
2021/05/13 06:34:45;;;;;;;2.50;2.30;;;;;;;19.97;46.64;101119.54;1683116;83;21394;-49
2021/05/13 06:37:12;;;;;;;4.80;2.30;;;;;;;19.93;47.03;101122.80;1691098;82;21571;-49
2021/05/13 06:39:39;;;;;;;2.42;2.05;;;;;;;19.89;46.68;101125.68;1673644;84;21043;-49
2021/05/13 06:42:07;;;;;;;2.55;2.25;;;;;;;19.84;46.80;101125.09;1713069;83;21043;-50
2021/05/13 06:44:33;;;;;;;3.60;2.35;;;;;;;19.82;47.04;101134.89;1686792;83;21627;-49
2021/05/13 06:47:00;;;;;;;2.30;2.08;;;;;;;19.79;47.03;101132.40;1730432;80;21023;-50
2021/05/13 06:49:28;;;;;;;2.00;1.87;;;;;;;19.76;47.21;101129.94;1785902;79;21051;-49
2021/05/13 06:51:55;;;;;;;2.60;2.30;;;;;;;19.76;47.51;101131.26;1774383;79;21543;-50
2021/05/13 06:54:21;;;;;;;2.37;2.17;;;;;;;19.79;47.58;101137.68;1777014;79;20989;-49
2021/05/13 06:56:49;;;;;;;2.40;2.20;;;;;;;19.81;47.58;101143.73;1765679;80;21057;-49
2021/05/13 06:59:16;;;;;;;4.28;2.40;;;;;;;19.83;47.32;101141.86;1757204;80;21091;-49
2021/05/13 07:01:43;;;;;;;2.72;2.12;;;;;;;19.82;47.28;101140.17;1766708;80;21104;-49
2021/05/13 07:04:10;;;;;;;3.15;2.33;;;;;;;19.79;47.20;101139.00;1735322;82;21051;-49
2021/05/13 07:06:36;;;;;;;3.62;2.37;;;;;;;19.75;47.08;101138.78;1721975;81;21035;-50
2021/05/13 07:09:06;;;;;;;3.45;2.00;;;;;;;19.69;47.38;101137.78;1715804;82;21593;-50
2021/05/13 07:11:33;;;;;;;3.52;1.98;;;;;;;19.64;47.90;101134.06;1709566;82;21556;-49
2021/05/13 07:14:00;;;;;;;3.17;1.95;;;;;;;19.59;48.32;101134.80;1704834;82;21103;-49
2021/05/13 07:16:28;;;;;;;5.10;2.17;;;;;;;19.57;49.11;101135.80;1726951;81;21044;-49
2021/05/13 07:18:54;;;;;;;2.47;2.22;;;;;;;19.54;49.76;101133.34;1709059;82;21548;-50
2021/05/13 07:21:21;;;;;;;4.67;1.92;;;;;;;19.53;48.87;101130.30;1719211;82;21055;-49
2021/05/13 07:23:48;;;;;;;3.15;2.10;;;;;;;19.54;49.00;101129.38;1784185;79;21009;-49
2021/05/13 07:26:15;;;;;;;2.55;2.35;;;;;;;19.57;48.95;101127.88;1775612;79;21101;-50
2021/05/13 07:28:42;;;;;;;4.25;2.22;;;;;;;19.61;49.35;101122.82;1721548;82;21115;-50
2021/05/13 07:31:08;;;;;;;2.98;1.95;;;;;;;19.65;49.91;101123.05;1771623;79;21013;-49
2021/05/13 07:33:36;;;;;;;3.92;1.90;;;;;;;19.69;49.69;101118.84;1779974;79;21061;-50
2021/05/13 07:36:04;;;;;;;4.25;1.60;;;;;;;19.74;49.98;101110.69;1712752;82;21072;-49
2021/05/13 07:38:33;;;;;;;3.72;1.77;;;;;;;19.76;49.11;101104.39;1724235;81;21033;-49
2021/05/13 07:40:59;;;;;;;3.65;1.77;;;;;;;19.79;49.08;101099.39;1719055;80;21057;-50
2021/05/13 07:43:26;;;;;;;2.02;1.85;;;;;;;19.81;48.14;101094.87;1710833;81;21056;-49
2021/05/13 07:45:53;;;;;;;3.00;2.10;;;;;;;19.81;48.62;101093.55;1726191;82;21045;-50
2021/05/13 07:48:20;;;;;;;3.00;2.27;;;;;;;19.79;48.23;101098.07;1720949;82;21060;-50
2021/05/13 07:50:47;;;;;;;2.33;1.70;;;;;;;19.76;48.80;101090.33;1716921;82;21068;-49
2021/05/13 07:53:13;;;;;;;4.25;2.12;;;;;;;19.72;48.83;101086.16;1764801;79;21555;-48
2021/05/13 07:55:40;;;;;;;3.12;1.87;;;;;;;19.68;48.90;101083.30;1778807;79;21052;-49
2021/05/13 07:58:08;;;;;;;2.35;1.40;;;;;;;19.64;48.54;101075.16;1718833;82;21622;-50
2021/05/13 08:00:34;;;;;;;3.05;1.62;;;;;;;19.59;47.72;101079.81;1787900;79;21583;-50
2021/05/13 08:03:01;;;;;;;2.47;1.85;;;;;;;19.51;47.61;101072.32;1778491;79;21040;-49
2021/05/13 08:05:28;;;;;;;2.30;1.60;;;;;;;19.44;47.88;101080.16;1764779;79;21032;-50
2021/05/13 08:07:54;;;;;;;1.45;1.35;;;;;;;19.38;47.84;101074.75;1773824;79;21020;-50
2021/05/13 08:10:21;;;;;;;2.05;1.60;;;;;;;19.33;47.45;101079.41;1781693;79;21158;-49
2021/05/13 08:12:48;;;;;;;1.57;1.47;;;;;;;19.28;47.26;101076.14;1766804;79;21072;-49
2021/05/13 08:15:15;;;;;;;1.70;1.50;;;;;;;19.24;47.55;101072.41;1777922;79;21068;-50
2021/05/13 08:17:43;;;;;;;4.90;1.40;;;;;;;19.21;48.27;101068.61;1773429;78;21032;-49
2021/05/13 08:20:13;;;;;;;2.58;1.30;;;;;;;19.20;48.77;101083.61;1788767;79;21036;-50
2021/05/13 08:22:41;;;;;;;2.95;1.62;;;;;;;19.20;48.72;101086.24;1777342;79;21029;-49
2021/05/13 08:25:09;;;;;;;1.80;1.70;;;;;;;19.22;49.03;101097.57;1781089;79;21067;-50
2021/05/13 08:27:36;;;;;;;2.17;1.75;;;;;;;19.22;50.09;101113.40;1777743;79;21192;-50
2021/05/13 08:30:05;;;;;;;2.20;1.92;;;;;;;19.24;51.02;101116.81;1766485;79;21052;-49
2021/05/13 08:32:32;;;;;;;2.85;1.70;;;;;;;19.26;51.38;101117.59;1781445;79;21005;-50
2021/05/13 08:34:58;;;;;;;1.42;1.32;;;;;;;19.30;51.77;101121.77;1748499;79;21077;-49
2021/05/13 08:37:25;;;;;;;2.45;1.65;;;;;;;19.36;51.75;101121.94;1779516;79;21095;-50
2021/05/13 08:39:53;;;;;;;2.37;1.50;;;;;;;19.39;51.72;101122.63;1779238;79;21556;-50
2021/05/13 08:42:21;;;;;;;2.98;1.62;;;;;;;19.45;51.74;101123.62;1778348;80;21543;-49
2021/05/13 08:44:47;;;;;;;1.77;1.42;;;;;;;19.50;51.82;101127.34;1781130;79;21056;-50
2021/05/13 08:47:14;;;;;;;3.47;1.57;;;;;;;19.55;51.92;101123.15;1793832;79;21095;-50
2021/05/13 08:49:41;;;;;;;1.87;1.37;;;;;;;19.60;52.20;101126.41;1771844;80;21548;-50
2021/05/13 08:52:12;;;;;;;2.12;1.50;;;;;;;19.66;52.50;101131.36;1742339;80;21027;-50
2021/05/13 08:55:02;;;;;;;4.37;1.70;;;;;;;19.72;52.34;101131.04;1714595;82;21017;-49
2021/05/13 08:57:28;;;;;;;2.92;1.60;;;;;;;19.79;52.43;101132.40;1717703;82;21096;-50
2021/05/13 08:59:56;;;;;;;1.85;1.70;;;;;;;19.86;52.39;101127.19;1725469;82;21124;-51
2021/05/13 09:02:25;;;;;;;3.37;2.22;;;;;;;19.90;52.87;101124.76;1731799;82;21060;-51
2021/05/13 09:04:56;;;;;;;2.55;2.27;;;;;;;19.96;53.08;101125.75;1760372;80;21545;-49
2021/05/13 09:07:27;;;;;;;4.08;1.80;;;;;;;20.01;52.98;101129.00;1780869;79;21043;-51
2021/05/13 09:10:00;;;;;;;3.35;1.90;;;;;;;20.02;52.87;101124.95;1783091;79;21423;-49
2021/05/13 09:12:29;;;;;;;2.50;2.10;;;;;;;20.07;52.70;101122.06;1762731;79;21032;-50
2021/05/13 09:15:14;;;;;;;1.80;1.55;;;;;;;20.10;52.22;101123.19;1708377;82;21687;-49
2021/05/13 09:17:43;;;;;;;3.08;2.12;;;;;;;20.12;52.06;101121.31;1700291;83;21044;-49
2021/05/13 09:20:37;;;;;;;2.90;1.55;;;;;;;20.11;51.99;101128.87;1717873;81;21087;-50
2021/05/13 09:23:26;;;;;;;2.75;1.52;;;;;;;20.07;51.92;101130.81;1782446;79;21068;-48
2021/05/13 09:26:15;;;;;;;3.20;2.00;;;;;;;20.05;52.34;101135.83;1785049;79;21036;-49
2021/05/13 09:28:43;;;;;;;4.70;4.20;;;;;;;20.02;52.29;101139.94;1767891;79;21115;-49
2021/05/13 09:31:35;;;;;;;3.70;3.25;;;;;;;20.00;52.21;101141.81;1769543;80;21595;-49
2021/05/13 09:34:05;;;;;;;3.50;2.20;;;;;;;19.98;52.18;101141.04;1670745;83;21546;-49
2021/05/13 09:36:32;;;;;;;3.22;1.75;;;;;;;20.00;51.93;101144.45;1684045;84;21134;-49
2021/05/13 09:39:00;;;;;;;4.95;1.92;;;;;;;20.02;52.01;101143.44;1693020;83;21614;-49
2021/05/13 09:44:03;;;;;;;2.95;2.02;;;;;;;20.05;52.69;101152.99;1666050;85;21138;-49
2021/05/13 09:46:34;;;;;;;2.30;1.65;;;;;;;20.06;52.46;101155.55;1657753;85;21207;-49
2021/05/13 09:49:01;;;;;;;4.17;3.70;;;;;;;20.07;52.07;101148.48;1655403;86;21060;-49
2021/05/13 09:51:31;;;;;;;4.45;3.47;;;;;;;20.05;52.03;101150.35;1651898;86;21632;-50
2021/05/13 09:54:20;;;;;;;3.85;3.17;;;;;;;20.02;52.21;101141.26;1650656;86;21096;-49
2021/05/13 09:56:51;;;;;;;6.10;2.85;;;;;;;20.00;52.32;101145.77;1654618;86;21194;-50
2021/05/13 09:59:29;;;;;;;3.62;2.10;;;;;;;19.99;52.24;101138.31;1665491;85;21063;-49
2021/05/13 10:02:10;;;;;;;2.47;1.90;;;;;;;19.98;52.30;101141.04;1656573;85;21108;-49
2021/05/13 10:04:36;;;;;;;4.83;3.70;;;;;;;19.94;52.33;101139.50;1658414;85;21110;-50
2021/05/13 10:07:03;;;;;;;8.65;6.08;;;;;;;19.93;52.70;101134.68;1615136;87;21072;-49
2021/05/13 10:09:31;;;;;;;7.62;6.80;;;;;;;19.95;53.14;101142.52;1656242;86;21100;-50
2021/05/13 10:12:00;;;;;;;9.23;5.72;;;;;;;19.96;53.51;101138.95;1645751;86;21113;-50
2021/05/13 10:14:28;;;;;;;9.95;7.08;;;;;;;20.09;53.48;101136.04;1595434;89;21083;-49
2021/05/13 10:17:00;;;;;;;9.05;4.78;;;;;;;20.20;53.62;101136.31;1648061;86;21097;-50
2021/05/13 10:19:38;;;;;;;5.22;3.10;;;;;;;20.27;53.20;101139.02;1604396;88;21588;-49
2021/05/13 10:22:06;;;;;;;5.28;3.87;;;;;;;20.43;53.06;101141.64;1607308;86;21107;-49
2021/05/13 10:24:32;;;;;;;2.27;2.00;;;;;;;20.56;52.97;101138.70;1618479;87;21123;-49
2021/05/13 10:26:59;;;;;;;4.12;2.17;;;;;;;20.66;52.34;101135.45;1686438;84;21130;-49
2021/05/13 10:29:32;;;;;;;2.30;1.67;;;;;;;20.77;52.19;101129.55;1671544;84;21695;-50
2021/05/13 10:32:16;;;;;;;3.85;1.75;;;;;;;20.87;51.59;101131.56;1666414;84;21103;-50
2021/05/13 10:34:59;;;;;;;3.42;2.00;;;;;;;20.94;51.46;101122.31;1661969;84;21062;-50
2021/05/13 10:37:43;;;;;;;4.05;2.50;;;;;;;20.98;51.25;101125.16;1662132;84;21047;-50
2021/05/13 10:40:27;;;;;;;3.00;1.62;;;;;;;21.00;51.21;101127.24;1641417;83;21048;-49
2021/05/13 10:43:06;;;;;;;4.08;1.80;;;;;;;21.05;51.26;101124.37;1669239;84;21067;-49
2021/05/13 10:45:35;;;;;;;5.47;1.65;;;;;;;21.11;51.39;101122.67;1732159;80;21068;-49
2021/05/13 10:51:03;;;;;;;3.95;2.75;;;;;;;21.26;51.09;101117.80;1632014;86;21088;-50
2021/05/13 10:53:46;;;;;;;2.75;2.12;;;;;;;21.42;50.59;101116.39;1614418;86;21174;-50
2021/05/13 10:56:35;;;;;;;4.58;3.20;;;;;;;21.57;50.03;101112.81;1607016;87;21605;-49
2021/05/13 10:59:15;;;;;;;5.45;3.70;;;;;;;21.70;49.99;101109.80;1609829;88;21168;-50
2021/05/13 11:01:48;;;;;;;5.58;3.95;;;;;;;21.81;49.34;101110.86;1612234;87;21114;-50
2021/05/13 11:04:29;;;;;;;4.60;3.50;;;;;;;21.86;48.85;101107.92;1613242;88;21159;-51
2021/05/13 11:07:05;;;;;;;3.72;2.42;;;;;;;21.91;48.69;101112.95;1620653;87;21122;-50
2021/05/13 11:09:46;;;;;;;3.75;2.02;;;;;;;21.93;48.64;101109.22;1624333;86;21114;-50
2021/05/13 11:12:19;;;;;;;3.35;2.02;;;;;;;21.92;48.95;101104.89;1608507;87;21647;-50
2021/05/13 11:15:12;;;;;;;2.40;1.70;;;;;;;21.94;48.84;101101.67;1610409;88;21107;-50
2021/05/13 11:20:46;;;;;;;3.77;1.62;;;;;;;21.91;48.82;101107.15;1617039;87;21083;-50
2021/05/13 11:23:24;;;;;;;2.58;1.90;;;;;;;21.90;48.92;101097.52;1617964;87;21110;-50
2021/05/13 11:25:57;;;;;;;4.50;2.05;;;;;;;21.91;48.93;101098.37;1623325;87;21081;-50
2021/05/13 11:28:43;;;;;;;3.55;2.00;;;;;;;21.94;48.99;101100.34;1602572;87;21047;-49
2021/05/13 11:31:20;;;;;;;4.22;1.62;;;;;;;21.95;49.00;101099.38;1643991;85;21111;-50
2021/05/13 11:33:58;;;;;;;2.17;1.52;;;;;;;21.97;48.85;101091.36;1578800;89;21275;-50
2021/05/13 11:36:32;;;;;;;2.67;2.00;;;;;;;21.98;48.90;101098.34;1550379;91;21716;-50
2021/05/13 11:41:36;;;;;;;2.67;2.12;;;;;;;22.03;49.13;101090.47;1477951;96;21090;-50
2021/05/13 11:44:03;;;;;;;4.83;2.10;;;;;;;22.05;49.02;101089.89;1474124;96;21104;-50
2021/05/13 11:46:30;;;;;;;4.45;1.92;;;;;;;22.11;48.84;101081.58;1462142;96;21238;-50
2021/05/13 11:48:58;;;;;;;2.80;1.87;;;;;;;22.15;49.05;101080.90;1464716;97;21138;-50
2021/05/13 11:51:28;;;;;;;4.25;2.00;;;;;;;22.16;48.99;101084.77;1496182;94;21127;-50
2021/05/13 11:53:57;;;;;;;3.30;1.95;;;;;;;22.22;48.75;101084.37;1505704;95;21147;-50
2021/05/13 11:56:25;;;;;;;4.92;1.75;;;;;;;22.24;48.67;101075.84;1489739;94;21737;-50
2021/05/13 11:59:00;;;;;;;1.85;1.65;;;;;;;22.24;48.77;101076.31;1491720;95;21145;-49
2021/05/13 12:01:43;;;;;;;5.35;2.10;;;;;;;22.21;48.88;101083.16;1506440;95;21135;-50